sensor_id;sensor_type;location;lat;lon;timestamp;pressure;altitude;pressure_sealevel;temperature;humidity
76994;BME280;66749;47.406;18.822;2023-10-19T00:00:01;99906.13;;;9.73;65.64
76994;BME280;66749;47.406;18.822;2023-10-19T00:00:51;99908.75;;;9.73;66.20
76994;BME280;66749;47.406;18.822;2023-10-19T00:01:23;99904.47;;;9.72;65.91
76994;BME280;66749;47.406;18.822;2023-10-19T00:02:00;99906.13;;;9.73;66.11
76994;BME280;66749;47.406;18.822;2023-10-19T00:02:32;99908.63;;;9.74;65.62
76994;BME280;66749;47.406;18.822;2023-10-19T00:03:04;99901.84;;;9.72;65.66
76994;BME280;66749;47.406;18.822;2023-10-19T00:03:35;99907.25;;;9.69;65.17
76994;BME280;66749;47.406;18.822;2023-10-19T00:04:07;99903.72;;;9.70;65.10
76994;BME280;66749;47.406;18.822;2023-10-19T00:04:39;99903.63;;;9.71;64.86
76994;BME280;66749;47.406;18.822;2023-10-19T00:05:12;99907.81;;;9.74;65.07
76994;BME280;66749;47.406;18.822;2023-10-19T00:05:46;99905.13;;;9.76;65.44
76994;BME280;66749;47.406;18.822;2023-10-19T00:06:22;99901.75;;;9.73;65.78
76994;BME280;66749;47.406;18.822;2023-10-19T00:06:54;99899.09;;;9.75;65.61
76994;BME280;66749;47.406;18.822;2023-10-19T00:07:26;99905.28;;;9.72;65.59
76994;BME280;66749;47.406;18.822;2023-10-19T00:07:59;99897.47;;;9.72;64.84
76994;BME280;66749;47.406;18.822;2023-10-19T00:08:32;99902.59;;;9.74;64.99
76994;BME280;66749;47.406;18.822;2023-10-19T00:09:13;99908.63;;;9.74;64.69
76994;BME280;66749;47.406;18.822;2023-10-19T00:09:46;99905.97;;;9.76;64.93
76994;BME280;66749;47.406;18.822;2023-10-19T00:10:20;99905.03;;;9.77;65.23
76994;BME280;66749;47.406;18.822;2023-10-19T00:10:54;99900.75;;;9.76;65.75
76994;BME280;66749;47.406;18.822;2023-10-19T00:11:40;99908.56;;;9.76;65.73
76994;BME280;66749;47.406;18.822;2023-10-19T00:12:12;99896.38;;;9.77;65.66
76994;BME280;66749;47.406;18.822;2023-10-19T00:12:46;99900.75;;;9.76;65.88
76994;BME280;66749;47.406;18.822;2023-10-19T00:13:24;99896.66;;;9.72;65.40
76994;BME280;66749;47.406;18.822;2023-10-19T00:13:56;99902.59;;;9.74;65.91
76994;BME280;66749;47.406;18.822;2023-10-19T00:14:29;99899.09;;;9.75;65.58
76994;BME280;66749;47.406;18.822;2023-10-19T00:15:04;99888.47;;;9.78;65.87
76994;BME280;66749;47.406;18.822;2023-10-19T00:15:36;99896.28;;;9.78;65.86
76994;BME280;66749;47.406;18.822;2023-10-19T00:16:12;99891.25;;;9.75;66.23
76994;BME280;66749;47.406;18.822;2023-10-19T00:16:49;99889.41;;;9.77;66.21
76994;BME280;66749;47.406;18.822;2023-10-19T00:17:32;99892.09;;;9.76;66.02
76994;BME280;66749;47.406;18.822;2023-10-19T00:18:04;99897.22;;;9.77;65.81
76994;BME280;66749;47.406;18.822;2023-10-19T00:19:05;99894.59;;;9.77;66.10
76994;BME280;66749;47.406;18.822;2023-10-19T00:19:37;99897.13;;;9.79;65.70
76994;BME280;66749;47.406;18.822;2023-10-19T00:20:14;99898.16;;;9.76;65.96
76994;BME280;66749;47.406;18.822;2023-10-19T00:21:04;99893.66;;;9.78;65.82
76994;BME280;66749;47.406;18.822;2023-10-19T00:21:51;99898.97;;;9.77;66.06
76994;BME280;66749;47.406;18.822;2023-10-19T00:22:26;99892.00;;;9.77;66.29
76994;BME280;66749;47.406;18.822;2023-10-19T00:22:58;99893.66;;;9.78;66.17
76994;BME280;66749;47.406;18.822;2023-10-19T00:23:30;99882.31;;;9.79;66.40
76994;BME280;66749;47.406;18.822;2023-10-19T00:24:06;99888.25;;;9.81;66.62
76994;BME280;66749;47.406;18.822;2023-10-19T00:24:38;99885.66;;;9.81;66.42
76994;BME280;66749;47.406;18.822;2023-10-19T00:25:13;99880.44;;;9.81;66.72
76994;BME280;66749;47.406;18.822;2023-10-19T00:25:45;99888.25;;;9.81;66.63
76994;BME280;66749;47.406;18.822;2023-10-19T00:26:23;99889.19;;;9.80;66.19
76994;BME280;66749;47.406;18.822;2023-10-19T00:26:58;99884.09;;;9.79;66.25
76994;BME280;66749;47.406;18.822;2023-10-19T00:27:37;99889.28;;;9.79;66.44
76994;BME280;66749;47.406;18.822;2023-10-19T00:28:09;99881.38;;;9.80;66.09
76994;BME280;66749;47.406;18.822;2023-10-19T00:28:44;99890.03;;;9.81;65.82
76994;BME280;66749;47.406;18.822;2023-10-19T00:29:17;99886.59;;;9.80;66.31
76994;BME280;66749;47.406;18.822;2023-10-19T00:30:02;99887.44;;;9.81;66.25
76994;BME280;66749;47.406;18.822;2023-10-19T00:30:42;99882.22;;;9.81;66.31
76994;BME280;66749;47.406;18.822;2023-10-19T00:31:14;99883.97;;;9.80;66.36
76994;BME280;66749;47.406;18.822;2023-10-19T00:31:46;99887.44;;;9.81;66.39
76994;BME280;66749;47.406;18.822;2023-10-19T00:32:20;99886.59;;;9.80;66.56
76994;BME280;66749;47.406;18.822;2023-10-19T00:32:56;99893.47;;;9.81;66.52
76994;BME280;66749;47.406;18.822;2023-10-19T00:33:28;99885.75;;;9.80;66.62
76994;BME280;66749;47.406;18.822;2023-10-19T00:34:00;99889.19;;;9.80;66.32
76994;BME280;66749;47.406;18.822;2023-10-19T00:34:32;99887.44;;;9.81;66.42
76994;BME280;66749;47.406;18.822;2023-10-19T00:35:06;99877.19;;;9.78;66.57
76994;BME280;66749;47.406;18.822;2023-10-19T00:36:00;99888.47;;;9.78;66.41
76994;BME280;66749;47.406;18.822;2023-10-19T00:36:38;99878.88;;;9.79;66.93
76994;BME280;66749;47.406;18.822;2023-10-19T00:37:11;99881.38;;;9.80;66.62
76994;BME280;66749;47.406;18.822;2023-10-19T00:37:50;99878.88;;;9.79;66.57
76994;BME280;66749;47.406;18.822;2023-10-19T00:38:24;99877.84;;;9.81;66.79
76994;BME280;66749;47.406;18.822;2023-10-19T00:39:01;99870.78;;;9.83;67.05
76994;BME280;66749;47.406;18.822;2023-10-19T00:39:45;99874.28;;;9.82;67.50
76994;BME280;66749;47.406;18.822;2023-10-19T00:40:22;99874.13;;;9.85;67.42
76994;BME280;66749;47.406;18.822;2023-10-19T00:41:07;99873.75;;;9.77;66.86
76994;BME280;66749;47.406;18.822;2023-10-19T00:41:42;99872.09;;;9.76;66.95
76994;BME280;66749;47.406;18.822;2023-10-19T00:42:15;99870.13;;;9.80;66.83
76994;BME280;66749;47.406;18.822;2023-10-19T00:42:52;99875.06;;;9.84;66.92
76994;BME280;66749;47.406;18.822;2023-10-19T00:43:31;99871.69;;;9.82;67.66
76994;BME280;66749;47.406;18.822;2023-10-19T00:44:15;99868.19;;;9.83;67.38
76994;BME280;66749;47.406;18.822;2023-10-19T00:45:16;99875.44;;;9.78;67.03
76994;BME280;66749;47.406;18.822;2023-10-19T00:45:56;99864.06;;;9.79;67.04
76994;BME280;66749;47.406;18.822;2023-10-19T00:46:28;99872.56;;;9.83;67.55
76994;BME280;66749;47.406;18.822;2023-10-19T00:47:15;99869.09;;;9.82;67.88
76994;BME280;66749;47.406;18.822;2023-10-19T00:47:50;99862.19;;;9.81;67.63
76994;BME280;66749;47.406;18.822;2023-10-19T00:48:26;99867.34;;;9.83;67.46
76994;BME280;66749;47.406;18.822;2023-10-19T00:49:02;99864.75;;;9.83;67.60
76994;BME280;66749;47.406;18.822;2023-10-19T00:49:38;99860.38;;;9.83;67.66
76994;BME280;66749;47.406;18.822;2023-10-19T00:50:10;99858.88;;;9.79;67.93
76994;BME280;66749;47.406;18.822;2023-10-19T00:50:47;99868.72;;;9.74;68.00
76994;BME280;66749;47.406;18.822;2023-10-19T00:51:27;99864.44;;;9.73;68.38
76994;BME280;66749;47.406;18.822;2023-10-19T00:52:03;99862.59;;;9.75;68.32
76994;BME280;66749;47.406;18.822;2023-10-19T00:52:42;99865.75;;;9.80;68.66
76994;BME280;66749;47.406;18.822;2023-10-19T00:53:24;99859.59;;;9.81;68.56
76994;BME280;66749;47.406;18.822;2023-10-19T00:54:02;99858.88;;;9.79;69.07
76994;BME280;66749;47.406;18.822;2023-10-19T00:54:47;99858.13;;;9.77;69.70
76994;BME280;66749;47.406;18.822;2023-10-19T00:55:23;99851.88;;;9.80;69.75
76994;BME280;66749;47.406;18.822;2023-10-19T00:55:58;99850.84;;;9.82;69.84
76994;BME280;66749;47.406;18.822;2023-10-19T00:56:30;99851.78;;;9.81;70.18
76994;BME280;66749;47.406;18.822;2023-10-19T00:57:05;99855.97;;;9.84;70.57
76994;BME280;66749;47.406;18.822;2023-10-19T00:57:42;99841.56;;;9.78;71.38
76994;BME280;66749;47.406;18.822;2023-10-19T00:58:20;99845.28;;;9.74;71.95
76994;BME280;66749;47.406;18.822;2023-10-19T00:59:04;99845.28;;;9.74;71.99
76994;BME280;66749;47.406;18.822;2023-10-19T00:59:55;99843.50;;;9.74;72.60
76994;BME280;66749;47.406;18.822;2023-10-19T01:00:43;99845.09;;;9.77;72.90
76994;BME280;66749;47.406;18.822;2023-10-19T01:01:17;99840.00;;;9.76;73.46
76994;BME280;66749;47.406;18.822;2023-10-19T01:01:52;99844.44;;;9.73;74.06
76994;BME280;66749;47.406;18.822;2023-10-19T01:02:26;99851.50;;;9.71;74.34
76994;BME280;66749;47.406;18.822;2023-10-19T01:02:58;99845.84;;;9.65;74.71
76994;BME280;66749;47.406;18.822;2023-10-19T01:03:37;99845.66;;;9.68;74.53
76994;BME280;66749;47.406;18.822;2023-10-19T01:04:10;99839.06;;;9.62;75.02
76994;BME280;66749;47.406;18.822;2023-10-19T01:04:50;99843.53;;;9.60;75.49
76994;BME280;66749;47.406;18.822;2023-10-19T01:05:28;99844.00;;;9.53;76.07
76994;BME280;66749;47.406;18.822;2023-10-19T01:06:08;99840.25;;;9.57;76.43
76994;BME280;66749;47.406;18.822;2023-10-19T01:06:44;99841.81;;;9.59;76.57
76994;BME280;66749;47.406;18.822;2023-10-19T01:07:29;99839.16;;;9.61;76.40
76994;BME280;66749;47.406;18.822;2023-10-19T01:08:03;99840.81;;;9.62;77.25
76994;BME280;66749;47.406;18.822;2023-10-19T01:08:54;99850.59;;;9.58;78.19
76994;BME280;66749;47.406;18.822;2023-10-19T01:09:29;99841.94;;;9.58;78.20
76994;BME280;66749;47.406;18.822;2023-10-19T01:10:07;99838.59;;;9.56;78.78
76994;BME280;66749;47.406;18.822;2023-10-19T01:10:40;99842.88;;;9.57;78.88
76994;BME280;66749;47.406;18.822;2023-10-19T01:11:13;99842.88;;;9.57;78.66
76994;BME280;66749;47.406;18.822;2023-10-19T01:11:47;99838.69;;;9.54;78.53
76994;BME280;66749;47.406;18.822;2023-10-19T01:12:24;99837.19;;;9.50;78.80
76994;BME280;66749;47.406;18.822;2023-10-19T01:13:05;99834.47;;;9.52;78.69
76994;BME280;66749;47.406;18.822;2023-10-19T01:13:40;99843.06;;;9.54;78.75
76994;BME280;66749;47.406;18.822;2023-10-19T01:14:23;99833.63;;;9.37;79.81
76994;BME280;66749;47.406;18.822;2023-10-19T01:15:05;99845.28;;;9.45;79.74
76994;BME280;66749;47.406;18.822;2023-10-19T01:15:49;99838.22;;;9.48;79.86
76994;BME280;66749;47.406;18.822;2023-10-19T01:16:21;99838.38;;;9.44;80.33
76994;BME280;66749;47.406;18.822;2023-10-19T01:16:54;99834.69;;;9.49;80.14
76994;BME280;66749;47.406;18.822;2023-10-19T01:17:30;99838.13;;;9.49;80.24
76994;BME280;66749;47.406;18.822;2023-10-19T01:18:03;99826.66;;;9.52;80.26
76994;BME280;66749;47.406;18.822;2023-10-19T01:18:36;99831.13;;;9.50;80.71
76994;BME280;66749;47.406;18.822;2023-10-19T01:19:08;99824.25;;;9.49;80.81
76994;BME280;66749;47.406;18.822;2023-10-19T01:19:40;99831.13;;;9.50;81.00
76994;BME280;66749;47.406;18.822;2023-10-19T01:20:15;99824.06;;;9.52;80.91
76994;BME280;66749;47.406;18.822;2023-10-19T01:20:53;99832.91;;;9.49;80.93
76994;BME280;66749;47.406;18.822;2023-10-19T01:21:26;99831.13;;;9.50;81.11
76994;BME280;66749;47.406;18.822;2023-10-19T01:22:09;99832.75;;;9.52;80.87
76994;BME280;66749;47.406;18.822;2023-10-19T01:23:38;99819.63;;;9.54;81.13
76994;BME280;66749;47.406;18.822;2023-10-19T01:24:10;99831.59;;;9.56;81.06
76994;BME280;66749;47.406;18.822;2023-10-19T01:24:48;99826.31;;;9.58;81.35
76994;BME280;66749;47.406;18.822;2023-10-19T01:25:21;99831.81;;;9.53;81.46
76994;BME280;66749;47.406;18.822;2023-10-19T01:26:06;99825.19;;;9.48;81.10
76994;BME280;66749;47.406;18.822;2023-10-19T01:26:41;99820.00;;;9.48;81.27
76994;BME280;66749;47.406;18.822;2023-10-19T01:27:13;99828.53;;;9.50;81.20
76994;BME280;66749;47.406;18.822;2023-10-19T01:27:46;99827.59;;;9.51;81.29
76994;BME280;66749;47.406;18.822;2023-10-19T01:28:18;99822.41;;;9.51;81.32
76994;BME280;66749;47.406;18.822;2023-10-19T01:28:51;99823.16;;;9.53;80.98
76994;BME280;66749;47.406;18.822;2023-10-19T01:29:25;99819.53;;;9.55;80.88
76994;BME280;66749;47.406;18.822;2023-10-19T01:29:59;99822.22;;;9.54;81.33
76994;BME280;66749;47.406;18.822;2023-10-19T01:30:34;99814.69;;;9.49;81.18
76994;BME280;66749;47.406;18.822;2023-10-19T01:31:10;99814.88;;;9.46;81.87
76994;BME280;66749;47.406;18.822;2023-10-19T01:31:54;99824.25;;;9.49;82.09
76994;BME280;66749;47.406;18.822;2023-10-19T01:32:37;99817.19;;;9.51;81.87
76994;BME280;66749;47.406;18.822;2023-10-19T01:33:10;99816.19;;;9.53;81.44
76994;BME280;66749;47.406;18.822;2023-10-19T01:33:47;99820.16;;;9.44;81.70
76994;BME280;66749;47.406;18.822;2023-10-19T01:34:19;99812.44;;;9.43;81.90
76994;BME280;66749;47.406;18.822;2023-10-19T01:34:51;99817.38;;;9.48;81.53
76994;BME280;66749;47.406;18.822;2023-10-19T01:35:23;99807.81;;;9.48;81.62
76994;BME280;66749;47.406;18.822;2023-10-19T01:35:55;99817.19;;;9.51;81.72
76994;BME280;66749;47.406;18.822;2023-10-19T01:36:42;99811.25;;;9.49;81.72
76994;BME280;66749;47.406;18.822;2023-10-19T01:37:14;99807.81;;;9.48;81.65
76994;BME280;66749;47.406;18.822;2023-10-19T01:37:46;99806.13;;;9.47;82.04
76994;BME280;66749;47.406;18.822;2023-10-19T01:38:18;99811.34;;;9.47;81.94
76994;BME280;66749;47.406;18.822;2023-10-19T01:38:50;99808.16;;;9.42;82.00
76994;BME280;66749;47.406;18.822;2023-10-19T01:39:26;99810.50;;;9.47;82.00
76994;BME280;66749;47.406;18.822;2023-10-19T01:39:58;99802.97;;;9.42;82.21
76994;BME280;66749;47.406;18.822;2023-10-19T01:40:29;99807.69;;;9.35;82.32
76994;BME280;66749;47.406;18.822;2023-10-19T01:41:06;99806.22;;;9.31;82.44
76994;BME280;66749;47.406;18.822;2023-10-19T01:41:45;99805.00;;;9.37;82.54
76994;BME280;66749;47.406;18.822;2023-10-19T01:42:17;99804.47;;;9.32;82.42
76994;BME280;66749;47.406;18.822;2023-10-19T01:42:49;99802.78;;;9.31;82.68
76994;BME280;66749;47.406;18.822;2023-10-19T01:43:21;99799.97;;;9.34;82.65
76994;BME280;66749;47.406;18.822;2023-10-19T01:43:54;99797.38;;;9.34;82.96
76994;BME280;66749;47.406;18.822;2023-10-19T01:44:26;99799.97;;;9.34;83.39
76994;BME280;66749;47.406;18.822;2023-10-19T01:44:59;99799.97;;;9.34;83.20
76994;BME280;66749;47.406;18.822;2023-10-19T01:45:31;99795.44;;;9.37;83.49
76994;BME280;66749;47.406;18.822;2023-10-19T01:46:05;99794.88;;;9.32;83.49
76994;BME280;66749;47.406;18.822;2023-10-19T01:46:39;99794.88;;;9.32;83.48
76994;BME280;66749;47.406;18.822;2023-10-19T01:47:11;99788.94;;;9.30;83.45
76994;BME280;66749;47.406;18.822;2023-10-19T01:47:43;99792.28;;;9.32;83.86
76994;BME280;66749;47.406;18.822;2023-10-19T01:48:16;99790.59;;;9.31;83.72
76994;BME280;66749;47.406;18.822;2023-10-19T01:48:49;99788.09;;;9.30;83.66
76994;BME280;66749;47.406;18.822;2023-10-19T01:49:25;99788.16;;;9.28;83.82
76994;BME280;66749;47.406;18.822;2023-10-19T01:50:00;99786.59;;;9.26;84.04
76994;BME280;66749;47.406;18.822;2023-10-19T01:50:32;99784.94;;;9.25;84.08
76994;BME280;66749;47.406;18.822;2023-10-19T01:51:05;99783.88;;;9.27;83.64
76994;BME280;66749;47.406;18.822;2023-10-19T01:51:37;99790.13;;;9.25;83.93
76994;BME280;66749;47.406;18.822;2023-10-19T01:52:11;99788.56;;;9.22;84.36
76994;BME280;66749;47.406;18.822;2023-10-19T01:52:43;99788.72;;;9.19;84.26
76994;BME280;66749;47.406;18.822;2023-10-19T01:53:17;99786.22;;;9.17;84.57
76994;BME280;66749;47.406;18.822;2023-10-19T01:53:49;99787.69;;;9.22;84.29
76994;BME280;66749;47.406;18.822;2023-10-19T01:54:24;99791.06;;;9.24;84.23
76994;BME280;66749;47.406;18.822;2023-10-19T01:54:56;99789.47;;;9.21;84.25
76994;BME280;66749;47.406;18.822;2023-10-19T01:55:38;99780.09;;;9.18;84.37
76994;BME280;66749;47.406;18.822;2023-10-19T01:56:11;99788.81;;;9.17;84.35
76994;BME280;66749;47.406;18.822;2023-10-19T01:56:44;99794.78;;;9.20;84.39
76994;BME280;66749;47.406;18.822;2023-10-19T01:57:16;99786.13;;;9.19;84.32
76994;BME280;66749;47.406;18.822;2023-10-19T01:57:48;99785.09;;;9.22;84.53
76994;BME280;66749;47.406;18.822;2023-10-19T01:58:26;99785.47;;;9.15;84.64
76994;BME280;66749;47.406;18.822;2023-10-19T01:58:58;99778.41;;;9.17;84.48
76994;BME280;66749;47.406;18.822;2023-10-19T01:59:30;99785.47;;;9.15;84.65
76994;BME280;66749;47.406;18.822;2023-10-19T02:00:03;99782.94;;;9.14;84.62
76994;BME280;66749;47.406;18.822;2023-10-19T02:00:42;99781.00;;;9.17;84.75
76994;BME280;66749;47.406;18.822;2023-10-19T02:01:16;99777.38;;;9.20;84.68
76994;BME280;66749;47.406;18.822;2023-10-19T02:01:51;99773.94;;;9.20;84.58
76994;BME280;66749;47.406;18.822;2023-10-19T02:02:23;99765.50;;;9.16;85.26
76994;BME280;66749;47.406;18.822;2023-10-19T02:02:55;99770.97;;;9.11;85.01
76994;BME280;66749;47.406;18.822;2023-10-19T02:03:27;99775.06;;;9.15;84.81
76994;BME280;66749;47.406;18.822;2023-10-19T02:04:03;99773.22;;;9.17;84.92
76994;BME280;66749;47.406;18.822;2023-10-19T02:04:35;99767.16;;;9.17;84.89
76994;BME280;66749;47.406;18.822;2023-10-19T02:05:07;99766.22;;;9.18;85.26
76994;BME280;66749;47.406;18.822;2023-10-19T02:05:45;99764.66;;;9.15;85.15
76994;BME280;66749;47.406;18.822;2023-10-19T02:06:21;99769.88;;;9.15;85.47
76994;BME280;66749;47.406;18.822;2023-10-19T02:07:13;99768.38;;;9.11;85.59
76994;BME280;66749;47.406;18.822;2023-10-19T02:07:49;99769.09;;;9.13;85.84
76994;BME280;66749;47.406;18.822;2023-10-19T02:08:21;99763.00;;;9.14;85.68
76994;BME280;66749;47.406;18.822;2023-10-19T02:09:09;99772.47;;;9.15;85.47
76994;BME280;66749;47.406;18.822;2023-10-19T02:09:48;99767.16;;;9.17;85.63
76994;BME280;66749;47.406;18.822;2023-10-19T02:10:20;99769.78;;;9.17;85.55
76994;BME280;66749;47.406;18.822;2023-10-19T02:10:54;99773.09;;;9.19;85.25
76994;BME280;66749;47.406;18.822;2023-10-19T02:11:27;99766.97;;;9.20;85.17
76994;BME280;66749;47.406;18.822;2023-10-19T02:12:00;99768.75;;;9.20;85.65
76994;BME280;66749;47.406;18.822;2023-10-19T02:12:33;99770.50;;;9.19;85.63
76994;BME280;66749;47.406;18.822;2023-10-19T02:13:07;99767.91;;;9.19;85.88
76994;BME280;66749;47.406;18.822;2023-10-19T02:13:40;99758.22;;;9.21;85.90
76994;BME280;66749;47.406;18.822;2023-10-19T02:14:12;99768.00;;;9.17;85.88
76994;BME280;66749;47.406;18.822;2023-10-19T02:14:47;99763.44;;;9.07;86.52
76994;BME280;66749;47.406;18.822;2023-10-19T02:15:19;99764.34;;;9.06;86.49
76994;BME280;66749;47.406;18.822;2023-10-19T02:15:53;99768.56;;;9.08;86.31
76994;BME280;66749;47.406;18.822;2023-10-19T02:16:26;99769.19;;;9.12;86.32
76994;BME280;66749;47.406;18.822;2023-10-19T02:17:01;99774.41;;;9.12;86.57
76994;BME280;66749;47.406;18.822;2023-10-19T02:17:35;99771.25;;;9.07;86.90
76994;BME280;66749;47.406;18.822;2023-10-19T02:18:09;99769.75;;;9.03;87.18
76994;BME280;66749;47.406;18.822;2023-10-19T02:18:43;99767.88;;;9.05;87.30
76994;BME280;66749;47.406;18.822;2023-10-19T02:19:15;99768.47;;;9.10;87.04
76994;BME280;66749;47.406;18.822;2023-10-19T02:19:47;99765.66;;;9.13;86.99
76994;BME280;66749;47.406;18.822;2023-10-19T02:20:19;99770.81;;;9.14;86.88
76994;BME280;66749;47.406;18.822;2023-10-19T02:21:11;99769.28;;;9.10;87.53
76994;BME280;66749;47.406;18.822;2023-10-19T02:21:48;99759.72;;;9.11;87.67
76994;BME280;66749;47.406;18.822;2023-10-19T02:22:19;99759.53;;;9.14;87.47
76994;BME280;66749;47.406;18.822;2023-10-19T02:22:51;99765.50;;;9.16;87.77
76994;BME280;66749;47.406;18.822;2023-10-19T02:23:23;99760.28;;;9.16;87.57
76994;BME280;66749;47.406;18.822;2023-10-19T02:23:56;99757.69;;;9.16;87.85
76994;BME280;66749;47.406;18.822;2023-10-19T02:24:29;99756.91;;;9.14;87.76
76994;BME280;66749;47.406;18.822;2023-10-19T02:25:01;99760.66;;;9.10;88.32
76994;BME280;66749;47.406;18.822;2023-10-19T02:25:34;99764.72;;;9.14;88.01
76994;BME280;66749;47.406;18.822;2023-10-19T02:26:08;99753.59;;;9.12;88.52
76994;BME280;66749;47.406;18.822;2023-10-19T02:26:42;99757.78;;;9.14;88.57
76994;BME280;66749;47.406;18.822;2023-10-19T02:27:15;99758.63;;;9.15;88.53
76994;BME280;66749;47.406;18.822;2023-10-19T02:28:06;99751.06;;;9.10;88.93
76994;BME280;66749;47.406;18.822;2023-10-19T02:28:40;99747.06;;;9.05;88.97
76994;BME280;66749;47.406;18.822;2023-10-19T02:29:15;99743.72;;;9.03;88.97
76994;BME280;66749;47.406;18.822;2023-10-19T02:29:47;99738.72;;;9.00;89.37
76994;BME280;66749;47.406;18.822;2023-10-19T02:30:19;99743.72;;;9.03;89.49
76994;BME280;66749;47.406;18.822;2023-10-19T02:30:51;99731.81;;;8.99;89.74
76994;BME280;66749;47.406;18.822;2023-10-19T02:31:23;99730.97;;;8.98;89.07
76994;BME280;66749;47.406;18.822;2023-10-19T02:31:57;99739.25;;;9.05;89.17
76994;BME280;66749;47.406;18.822;2023-10-19T02:32:32;99739.25;;;9.05;89.28
76994;BME280;66749;47.406;18.822;2023-10-19T02:33:05;99742.91;;;9.02;89.33
76994;BME280;66749;47.406;18.822;2023-10-19T02:33:38;99737.22;;;8.96;89.75
76994;BME280;66749;47.406;18.822;2023-10-19T02:34:12;99736.38;;;8.95;89.91
76994;BME280;66749;47.406;18.822;2023-10-19T02:34:47;99737.97;;;8.98;90.27
76994;BME280;66749;47.406;18.822;2023-10-19T02:35:19;99728.69;;;8.94;90.41
76994;BME280;66749;47.406;18.822;2023-10-19T02:35:51;99740.53;;;8.83;90.32
76994;BME280;66749;47.406;18.822;2023-10-19T02:36:23;99736.09;;;8.85;90.76
76994;BME280;66749;47.406;18.822;2023-10-19T02:36:55;99737.69;;;8.88;90.83
76994;BME280;66749;47.406;18.822;2023-10-19T02:37:26;99734.13;;;8.89;90.59
76994;BME280;66749;47.406;18.822;2023-10-19T02:37:58;99725.31;;;8.92;90.44
76994;BME280;66749;47.406;18.822;2023-10-19T02:38:30;99735.66;;;8.93;90.47
76994;BME280;66749;47.406;18.822;2023-10-19T02:39:07;99728.56;;;8.95;90.46
76994;BME280;66749;47.406;18.822;2023-10-19T02:39:40;99735.56;;;8.95;90.53
76994;BME280;66749;47.406;18.822;2023-10-19T02:40:14;99727.75;;;8.95;90.38
76994;BME280;66749;47.406;18.822;2023-10-19T02:40:52;99731.28;;;8.94;90.48
76994;BME280;66749;47.406;18.822;2023-10-19T02:41:28;99723.38;;;8.95;90.45
76994;BME280;66749;47.406;18.822;2023-10-19T02:42:00;99727.75;;;8.95;90.39
76994;BME280;66749;47.406;18.822;2023-10-19T02:42:34;99725.31;;;8.92;90.63
76994;BME280;66749;47.406;18.822;2023-10-19T02:43:05;99722.53;;;8.95;90.61
76994;BME280;66749;47.406;18.822;2023-10-19T02:43:37;99722.69;;;8.92;90.91
76994;BME280;66749;47.406;18.822;2023-10-19T02:44:15;99720.09;;;8.92;90.84
76994;BME280;66749;47.406;18.822;2023-10-19T02:44:49;99719.00;;;8.96;90.94
76994;BME280;66749;47.406;18.822;2023-10-19T02:45:22;99715.75;;;8.92;90.86
76994;BME280;66749;47.406;18.822;2023-10-19T02:45:55;99715.66;;;8.94;90.92
76994;BME280;66749;47.406;18.822;2023-10-19T02:46:28;99714.84;;;8.93;91.10
76994;BME280;66749;47.406;18.822;2023-10-19T02:47:00;99717.22;;;8.96;90.88
76994;BME280;66749;47.406;18.822;2023-10-19T02:47:37;99720.09;;;8.92;91.48
76994;BME280;66749;47.406;18.822;2023-10-19T02:48:13;99714.91;;;8.92;91.35
76994;BME280;66749;47.406;18.822;2023-10-19T02:48:45;99711.66;;;8.88;91.45
76994;BME280;66749;47.406;18.822;2023-10-19T02:49:21;99712.28;;;8.92;91.60
76994;BME280;66749;47.406;18.822;2023-10-19T02:49:54;99712.13;;;8.95;91.25
76994;BME280;66749;47.406;18.822;2023-10-19T02:50:27;99712.03;;;8.96;91.65
76994;BME280;66749;47.406;18.822;2023-10-19T02:50:59;99708.41;;;8.99;91.48
76994;BME280;66749;47.406;18.822;2023-10-19T02:51:38;99709.69;;;8.92;91.47
76994;BME280;66749;47.406;18.822;2023-10-19T02:52:11;99707.84;;;8.94;91.67
76994;BME280;66749;47.406;18.822;2023-10-19T02:52:47;99710.16;;;8.98;91.29
76994;BME280;66749;47.406;18.822;2023-10-19T02:53:20;99705.78;;;8.99;91.50
76994;BME280;66749;47.406;18.822;2023-10-19T02:53:53;99705.78;;;8.99;91.46
76994;BME280;66749;47.406;18.822;2023-10-19T02:54:25;99704.69;;;9.03;91.63
76994;BME280;66749;47.406;18.822;2023-10-19T02:54:57;99698.75;;;9.01;91.70
76994;BME280;66749;47.406;18.822;2023-10-19T02:55:30;99706.09;;;8.94;92.03
76994;BME280;66749;47.406;18.822;2023-10-19T02:56:09;99694.94;;;8.92;91.89
76994;BME280;66749;47.406;18.822;2023-10-19T02:56:42;99698.19;;;8.96;92.10
76994;BME280;66749;47.406;18.822;2023-10-19T02:57:14;99692.25;;;8.94;92.15
76994;BME280;66749;47.406;18.822;2023-10-19T02:57:46;99694.75;;;8.95;92.32
76994;BME280;66749;47.406;18.822;2023-10-19T02:58:18;99691.22;;;8.96;92.34
76994;BME280;66749;47.406;18.822;2023-10-19T02:58:50;99700.59;;;8.99;92.29
76994;BME280;66749;47.406;18.822;2023-10-19T02:59:25;99699.69;;;9.00;91.95
76994;BME280;66749;47.406;18.822;2023-10-19T02:59:57;99703.13;;;9.00;91.85
76994;BME280;66749;47.406;18.822;2023-10-19T03:00:30;99702.75;;;8.92;92.34
76994;BME280;66749;47.406;18.822;2023-10-19T03:01:20;99704.13;;;8.98;92.35
76994;BME280;66749;47.406;18.822;2023-10-19T03:02:02;99705.78;;;8.99;92.32
76994;BME280;66749;47.406;18.822;2023-10-19T03:02:43;99701.53;;;8.98;92.33
76994;BME280;66749;47.406;18.822;2023-10-19T03:03:15;99697.91;;;9.00;92.77
76994;BME280;66749;47.406;18.822;2023-10-19T03:03:50;99703.03;;;9.02;92.44
76994;BME280;66749;47.406;18.822;2023-10-19T03:04:22;99697.72;;;9.03;92.76
76994;BME280;66749;47.406;18.822;2023-10-19T03:04:54;99688.88;;;9.06;92.54
76994;BME280;66749;47.406;18.822;2023-10-19T03:05:27;99690.66;;;9.05;92.77
76994;BME280;66749;47.406;18.822;2023-10-19T03:05:58;99690.38;;;9.10;92.61
76994;BME280;66749;47.406;18.822;2023-10-19T03:06:31;99694.66;;;9.11;92.44
76994;BME280;66749;47.406;18.822;2023-10-19T03:07:05;99687.78;;;9.10;92.38
76994;BME280;66749;47.406;18.822;2023-10-19T03:07:37;99688.59;;;9.10;92.41
76994;BME280;66749;47.406;18.822;2023-10-19T03:08:10;99689.53;;;9.09;92.83